sensor_id;sensor_type;location;lat;lon;timestamp;P1;durP1;ratioP1;P2;durP2;ratioP2
37983;SDS011;64625;50.882;4.376;2023-04-09T00:02:21;44.55;;;24.90;;
37983;SDS011;64625;50.882;4.376;2023-04-09T00:04:47;39.47;;;25.40;;
37983;SDS011;64625;50.882;4.376;2023-04-09T00:07:13;36.40;;;23.70;;
37983;SDS011;64625;50.882;4.376;2023-04-09T00:09:39;49.38;;;25.65;;
37983;SDS011;64625;50.882;4.376;2023-04-09T00:12:05;37.22;;;23.70;;
37983;SDS011;64625;50.882;4.376;2023-04-09T00:14:30;36.65;;;23.40;;
37983;SDS011;64625;50.882;4.376;2023-04-09T00:16:56;39.17;;;23.52;;
37983;SDS011;64625;50.882;4.376;2023-04-09T00:19:22;36.33;;;23.35;;
37983;SDS011;64625;50.882;4.376;2023-04-09T00:21:48;39.28;;;25.15;;
37983;SDS011;64625;50.882;4.376;2023-04-09T00:24:13;38.33;;;25.35;;
37983;SDS011;64625;50.882;4.376;2023-04-09T00:26:40;35.85;;;23.25;;
37983;SDS011;64625;50.882;4.376;2023-04-09T00:29:05;40.33;;;26.10;;
37983;SDS011;64625;50.882;4.376;2023-04-09T00:31:31;34.42;;;22.45;;
37983;SDS011;64625;50.882;4.376;2023-04-09T00:33:57;47.65;;;25.75;;
37983;SDS011;64625;50.882;4.376;2023-04-09T00:36:24;47.50;;;24.83;;
37983;SDS011;64625;50.882;4.376;2023-04-09T00:38:50;36.58;;;23.98;;
37983;SDS011;64625;50.882;4.376;2023-04-09T00:41:18;38.92;;;25.02;;
37983;SDS011;64625;50.882;4.376;2023-04-09T00:43:44;35.55;;;22.88;;
37983;SDS011;64625;50.882;4.376;2023-04-09T00:46:10;40.08;;;24.80;;
37983;SDS011;64625;50.882;4.376;2023-04-09T00:48:36;42.25;;;24.63;;
37983;SDS011;64625;50.882;4.376;2023-04-09T00:51:02;45.47;;;24.00;;
37983;SDS011;64625;50.882;4.376;2023-04-09T00:53:27;44.25;;;25.45;;
37983;SDS011;64625;50.882;4.376;2023-04-09T00:55:54;40.72;;;24.52;;
37983;SDS011;64625;50.882;4.376;2023-04-09T00:58:20;43.88;;;25.85;;
37983;SDS011;64625;50.882;4.376;2023-04-09T01:00:46;36.40;;;24.35;;
37983;SDS011;64625;50.882;4.376;2023-04-09T01:03:13;39.83;;;23.42;;
37983;SDS011;64625;50.882;4.376;2023-04-09T01:08:17;44.67;;;23.98;;
37983;SDS011;64625;50.882;4.376;2023-04-09T01:10:58;38.75;;;23.75;;
37983;SDS011;64625;50.882;4.376;2023-04-09T01:16:24;38.28;;;23.95;;
37983;SDS011;64625;50.882;4.376;2023-04-09T01:18:56;44.47;;;22.80;;
37983;SDS011;64625;50.882;4.376;2023-04-09T01:21:29;34.70;;;23.30;;
37983;SDS011;64625;50.882;4.376;2023-04-09T01:26:51;35.42;;;21.45;;
37983;SDS011;64625;50.882;4.376;2023-04-09T01:29:18;43.95;;;26.02;;
37983;SDS011;64625;50.882;4.376;2023-04-09T01:31:47;37.53;;;23.23;;
37983;SDS011;64625;50.882;4.376;2023-04-09T01:34:14;40.45;;;23.13;;
37983;SDS011;64625;50.882;4.376;2023-04-09T01:36:40;35.85;;;23.05;;
37983;SDS011;64625;50.882;4.376;2023-04-09T01:39:09;39.83;;;23.48;;
37983;SDS011;64625;50.882;4.376;2023-04-09T01:41:35;39.53;;;23.38;;
37983;SDS011;64625;50.882;4.376;2023-04-09T01:44:03;45.85;;;24.98;;
37983;SDS011;64625;50.882;4.376;2023-04-09T01:46:32;40.88;;;23.83;;
37983;SDS011;64625;50.882;4.376;2023-04-09T01:48:59;37.88;;;24.05;;
37983;SDS011;64625;50.882;4.376;2023-04-09T01:51:25;41.67;;;21.77;;
37983;SDS011;64625;50.882;4.376;2023-04-09T01:53:54;41.92;;;23.08;;
37983;SDS011;64625;50.882;4.376;2023-04-09T01:56:20;36.83;;;23.23;;
37983;SDS011;64625;50.882;4.376;2023-04-09T01:58:46;42.38;;;23.70;;
37983;SDS011;64625;50.882;4.376;2023-04-09T02:01:13;40.78;;;25.02;;
37983;SDS011;64625;50.882;4.376;2023-04-09T02:03:47;36.65;;;22.13;;
37983;SDS011;64625;50.882;4.376;2023-04-09T02:09:10;35.53;;;23.27;;
37983;SDS011;64625;50.882;4.376;2023-04-09T02:11:38;39.35;;;24.25;;
37983;SDS011;64625;50.882;4.376;2023-04-09T02:14:06;44.28;;;23.48;;
37983;SDS011;64625;50.882;4.376;2023-04-09T02:16:33;42.30;;;24.27;;
37983;SDS011;64625;50.882;4.376;2023-04-09T02:19:00;40.15;;;24.35;;
37983;SDS011;64625;50.882;4.376;2023-04-09T02:21:27;39.22;;;23.67;;
37983;SDS011;64625;50.882;4.376;2023-04-09T02:23:54;39.95;;;23.40;;
37983;SDS011;64625;50.882;4.376;2023-04-09T02:26:20;36.10;;;23.20;;
37983;SDS011;64625;50.882;4.376;2023-04-09T02:28:46;37.00;;;23.33;;
37983;SDS011;64625;50.882;4.376;2023-04-09T02:31:12;35.25;;;23.25;;
37983;SDS011;64625;50.882;4.376;2023-04-09T02:33:38;46.08;;;25.25;;
37983;SDS011;64625;50.882;4.376;2023-04-09T02:36:04;39.67;;;24.60;;
37983;SDS011;64625;50.882;4.376;2023-04-09T02:38:30;38.47;;;23.65;;
37983;SDS011;64625;50.882;4.376;2023-04-09T02:40:56;33.58;;;22.20;;
37983;SDS011;64625;50.882;4.376;2023-04-09T02:43:22;51.63;;;22.40;;
37983;SDS011;64625;50.882;4.376;2023-04-09T02:45:48;32.92;;;22.55;;
37983;SDS011;64625;50.882;4.376;2023-04-09T02:48:13;44.13;;;23.92;;
37983;SDS011;64625;50.882;4.376;2023-04-09T02:50:39;40.22;;;24.35;;
37983;SDS011;64625;50.882;4.376;2023-04-09T02:53:05;37.67;;;23.27;;
37983;SDS011;64625;50.882;4.376;2023-04-09T02:55:30;43.97;;;24.50;;
37983;SDS011;64625;50.882;4.376;2023-04-09T02:57:56;42.67;;;25.27;;
37983;SDS011;64625;50.882;4.376;2023-04-09T03:00:22;39.80;;;23.73;;
37983;SDS011;64625;50.882;4.376;2023-04-09T03:02:48;34.00;;;22.33;;
37983;SDS011;64625;50.882;4.376;2023-04-09T03:05:14;34.60;;;22.80;;
37983;SDS011;64625;50.882;4.376;2023-04-09T03:07:39;41.25;;;23.92;;
37983;SDS011;64625;50.882;4.376;2023-04-09T03:10:05;52.03;;;26.15;;
37983;SDS011;64625;50.882;4.376;2023-04-09T03:12:31;44.13;;;25.60;;
37983;SDS011;64625;50.882;4.376;2023-04-09T03:14:57;35.50;;;22.65;;
37983;SDS011;64625;50.882;4.376;2023-04-09T03:17:23;43.30;;;23.65;;
37983;SDS011;64625;50.882;4.376;2023-04-09T03:19:52;36.72;;;24.38;;
37983;SDS011;64625;50.882;4.376;2023-04-09T03:22:18;37.97;;;23.65;;
37983;SDS011;64625;50.882;4.376;2023-04-09T03:24:43;44.00;;;24.25;;
37983;SDS011;64625;50.882;4.376;2023-04-09T03:27:09;40.05;;;24.48;;
37983;SDS011;64625;50.882;4.376;2023-04-09T03:29:35;41.15;;;26.48;;
37983;SDS011;64625;50.882;4.376;2023-04-09T03:32:02;46.22;;;24.05;;
37983;SDS011;64625;50.882;4.376;2023-04-09T03:34:27;52.03;;;27.63;;
37983;SDS011;64625;50.882;4.376;2023-04-09T03:36:53;52.35;;;29.02;;
37983;SDS011;64625;50.882;4.376;2023-04-09T03:39:19;50.30;;;28.13;;
37983;SDS011;64625;50.882;4.376;2023-04-09T03:41:45;46.05;;;26.67;;
37983;SDS011;64625;50.882;4.376;2023-04-09T03:44:11;46.03;;;27.48;;
37983;SDS011;64625;50.882;4.376;2023-04-09T03:46:36;52.50;;;29.83;;
37983;SDS011;64625;50.882;4.376;2023-04-09T03:49:02;58.05;;;30.02;;
37983;SDS011;64625;50.882;4.376;2023-04-09T03:51:28;57.80;;;31.15;;
37983;SDS011;64625;50.882;4.376;2023-04-09T03:53:54;55.20;;;30.35;;
37983;SDS011;64625;50.882;4.376;2023-04-09T03:56:19;64.22;;;33.60;;
37983;SDS011;64625;50.882;4.376;2023-04-09T03:58:46;62.15;;;32.42;;
37983;SDS011;64625;50.882;4.376;2023-04-09T04:01:13;53.28;;;30.27;;
37983;SDS011;64625;50.882;4.376;2023-04-09T04:03:39;60.95;;;33.58;;
37983;SDS011;64625;50.882;4.376;2023-04-09T04:06:05;67.82;;;31.33;;
37983;SDS011;64625;50.882;4.376;2023-04-09T04:08:31;54.60;;;31.77;;
37983;SDS011;64625;50.882;4.376;2023-04-09T04:11:06;56.53;;;33.20;;
37983;SDS011;64625;50.882;4.376;2023-04-09T04:13:31;58.53;;;31.92;;
37983;SDS011;64625;50.882;4.376;2023-04-09T04:15:57;58.70;;;32.30;;
37983;SDS011;64625;50.882;4.376;2023-04-09T04:18:23;69.57;;;33.33;;
37983;SDS011;64625;50.882;4.376;2023-04-09T04:20:48;71.10;;;34.63;;
37983;SDS011;64625;50.882;4.376;2023-04-09T04:23:14;68.55;;;33.53;;
37983;SDS011;64625;50.882;4.376;2023-04-09T04:25:40;72.88;;;36.78;;
37983;SDS011;64625;50.882;4.376;2023-04-09T04:28:07;67.80;;;32.40;;
37983;SDS011;64625;50.882;4.376;2023-04-09T04:30:33;58.50;;;31.88;;
37983;SDS011;64625;50.882;4.376;2023-04-09T04:32:58;63.72;;;35.13;;
37983;SDS011;64625;50.882;4.376;2023-04-09T04:35:24;60.28;;;32.47;;
37983;SDS011;64625;50.882;4.376;2023-04-09T04:37:51;64.75;;;32.75;;
37983;SDS011;64625;50.882;4.376;2023-04-09T04:40:17;60.63;;;32.13;;
37983;SDS011;64625;50.882;4.376;2023-04-09T04:42:43;62.35;;;32.60;;
37983;SDS011;64625;50.882;4.376;2023-04-09T04:45:08;61.70;;;31.95;;
37983;SDS011;64625;50.882;4.376;2023-04-09T04:47:34;65.93;;;35.72;;
37983;SDS011;64625;50.882;4.376;2023-04-09T04:50:00;67.43;;;33.58;;
37983;SDS011;64625;50.882;4.376;2023-04-09T04:52:26;65.72;;;32.30;;
37983;SDS011;64625;50.882;4.376;2023-04-09T04:54:51;61.90;;;34.55;;
37983;SDS011;64625;50.882;4.376;2023-04-09T04:57:17;75.82;;;36.35;;
37983;SDS011;64625;50.882;4.376;2023-04-09T04:59:43;68.57;;;35.42;;
37983;SDS011;64625;50.882;4.376;2023-04-09T05:02:09;74.55;;;36.88;;
37983;SDS011;64625;50.882;4.376;2023-04-09T05:04:36;75.03;;;36.22;;
37983;SDS011;64625;50.882;4.376;2023-04-09T05:07:02;67.13;;;35.00;;
37983;SDS011;64625;50.882;4.376;2023-04-09T05:09:27;72.72;;;39.08;;
37983;SDS011;64625;50.882;4.376;2023-04-09T05:11:53;75.13;;;37.70;;
37983;SDS011;64625;50.882;4.376;2023-04-09T05:14:19;70.85;;;36.45;;
37983;SDS011;64625;50.882;4.376;2023-04-09T05:16:49;74.50;;;36.40;;
37983;SDS011;64625;50.882;4.376;2023-04-09T05:19:15;85.82;;;42.08;;
37983;SDS011;64625;50.882;4.376;2023-04-09T05:21:40;79.10;;;40.60;;
37983;SDS011;64625;50.882;4.376;2023-04-09T05:24:06;82.88;;;42.13;;
37983;SDS011;64625;50.882;4.376;2023-04-09T05:26:32;84.70;;;39.53;;
37983;SDS011;64625;50.882;4.376;2023-04-09T05:28:57;83.38;;;42.92;;
37983;SDS011;64625;50.882;4.376;2023-04-09T05:31:23;89.45;;;44.33;;
37983;SDS011;64625;50.882;4.376;2023-04-09T05:33:49;77.72;;;40.10;;
37983;SDS011;64625;50.882;4.376;2023-04-09T05:36:15;78.72;;;42.00;;
37983;SDS011;64625;50.882;4.376;2023-04-09T05:38:42;74.47;;;37.67;;
37983;SDS011;64625;50.882;4.376;2023-04-09T05:41:09;79.28;;;39.13;;
37983;SDS011;64625;50.882;4.376;2023-04-09T05:43:35;71.00;;;37.00;;
37983;SDS011;64625;50.882;4.376;2023-04-09T05:46:01;77.07;;;38.88;;
37983;SDS011;64625;50.882;4.376;2023-04-09T05:48:27;81.10;;;40.63;;
37983;SDS011;64625;50.882;4.376;2023-04-09T05:50:52;83.00;;;41.78;;
37983;SDS011;64625;50.882;4.376;2023-04-09T05:53:18;82.47;;;39.22;;
37983;SDS011;64625;50.882;4.376;2023-04-09T05:55:45;87.45;;;42.53;;
37983;SDS011;64625;50.882;4.376;2023-04-09T05:58:13;82.22;;;42.03;;
37983;SDS011;64625;50.882;4.376;2023-04-09T06:00:39;78.78;;;42.70;;
37983;SDS011;64625;50.882;4.376;2023-04-09T06:03:07;82.40;;;41.55;;
37983;SDS011;64625;50.882;4.376;2023-04-09T06:05:33;83.47;;;44.03;;
37983;SDS011;64625;50.882;4.376;2023-04-09T06:07:59;78.47;;;43.65;;
37983;SDS011;64625;50.882;4.376;2023-04-09T06:10:24;89.35;;;43.92;;
37983;SDS011;64625;50.882;4.376;2023-04-09T06:12:50;89.45;;;42.90;;
37983;SDS011;64625;50.882;4.376;2023-04-09T06:15:16;89.95;;;46.65;;
37983;SDS011;64625;50.882;4.376;2023-04-09T06:17:42;92.18;;;47.63;;
37983;SDS011;64625;50.882;4.376;2023-04-09T06:20:08;98.25;;;48.38;;
37983;SDS011;64625;50.882;4.376;2023-04-09T06:22:34;88.93;;;50.33;;
37983;SDS011;64625;50.882;4.376;2023-04-09T06:25:01;98.32;;;47.60;;
37983;SDS011;64625;50.882;4.376;2023-04-09T06:27:27;97.22;;;48.65;;
37983;SDS011;64625;50.882;4.376;2023-04-09T06:29:53;98.57;;;46.20;;
37983;SDS011;64625;50.882;4.376;2023-04-09T06:32:18;92.68;;;49.83;;
37983;SDS011;64625;50.882;4.376;2023-04-09T06:34:44;95.15;;;47.28;;
37983;SDS011;64625;50.882;4.376;2023-04-09T06:37:10;102.70;;;51.17;;
37983;SDS011;64625;50.882;4.376;2023-04-09T06:39:36;105.30;;;51.67;;
37983;SDS011;64625;50.882;4.376;2023-04-09T06:42:02;102.28;;;52.92;;
37983;SDS011;64625;50.882;4.376;2023-04-09T06:44:28;103.65;;;50.45;;
37983;SDS011;64625;50.882;4.376;2023-04-09T06:46:55;91.03;;;48.13;;
37983;SDS011;64625;50.882;4.376;2023-04-09T06:49:21;99.30;;;46.60;;
37983;SDS011;64625;50.882;4.376;2023-04-09T06:51:46;93.25;;;48.45;;
37983;SDS011;64625;50.882;4.376;2023-04-09T06:54:12;93.90;;;47.83;;
37983;SDS011;64625;50.882;4.376;2023-04-09T06:56:38;98.88;;;47.85;;
37983;SDS011;64625;50.882;4.376;2023-04-09T06:59:04;103.95;;;51.17;;
37983;SDS011;64625;50.882;4.376;2023-04-09T07:01:29;94.63;;;47.80;;
37983;SDS011;64625;50.882;4.376;2023-04-09T07:03:55;92.30;;;47.88;;
37983;SDS011;64625;50.882;4.376;2023-04-09T07:06:21;91.32;;;45.50;;
37983;SDS011;64625;50.882;4.376;2023-04-09T07:08:47;90.30;;;46.55;;
37983;SDS011;64625;50.882;4.376;2023-04-09T07:11:13;91.85;;;47.55;;
37983;SDS011;64625;50.882;4.376;2023-04-09T07:13:41;94.68;;;48.95;;
37983;SDS011;64625;50.882;4.376;2023-04-09T07:16:07;84.80;;;45.97;;
37983;SDS011;64625;50.882;4.376;2023-04-09T07:18:33;95.72;;;48.33;;
37983;SDS011;64625;50.882;4.376;2023-04-09T07:21:01;90.20;;;48.75;;
37983;SDS011;64625;50.882;4.376;2023-04-09T07:23:27;91.53;;;46.42;;
37983;SDS011;64625;50.882;4.376;2023-04-09T07:25:53;98.30;;;48.35;;
37983;SDS011;64625;50.882;4.376;2023-04-09T07:28:18;83.20;;;46.25;;
37983;SDS011;64625;50.882;4.376;2023-04-09T07:30:44;92.90;;;46.60;;
37983;SDS011;64625;50.882;4.376;2023-04-09T07:33:11;96.97;;;45.92;;
37983;SDS011;64625;50.882;4.376;2023-04-09T07:35:36;78.18;;;43.05;;
37983;SDS011;64625;50.882;4.376;2023-04-09T07:38:02;94.30;;;44.92;;
37983;SDS011;64625;50.882;4.376;2023-04-09T07:40:28;86.35;;;44.40;;
37983;SDS011;64625;50.882;4.376;2023-04-09T07:42:54;79.38;;;42.90;;
37983;SDS011;64625;50.882;4.376;2023-04-09T07:45:20;76.25;;;41.80;;
37983;SDS011;64625;50.882;4.376;2023-04-09T07:47:45;86.38;;;43.80;;
37983;SDS011;64625;50.882;4.376;2023-04-09T07:50:11;75.20;;;41.15;;
37983;SDS011;64625;50.882;4.376;2023-04-09T07:52:37;77.60;;;42.10;;
37983;SDS011;64625;50.882;4.376;2023-04-09T07:55:03;66.75;;;40.65;;
37983;SDS011;64625;50.882;4.376;2023-04-09T07:57:30;79.22;;;41.50;;
37983;SDS011;64625;50.882;4.376;2023-04-09T07:59:57;68.80;;;38.38;;
37983;SDS011;64625;50.882;4.376;2023-04-09T08:02:22;77.47;;;44.00;;
37983;SDS011;64625;50.882;4.376;2023-04-09T08:04:49;70.82;;;44.33;;
37983;SDS011;64625;50.882;4.376;2023-04-09T08:07:15;68.50;;;38.75;;
37983;SDS011;64625;50.882;4.376;2023-04-09T08:09:40;75.38;;;43.63;;
37983;SDS011;64625;50.882;4.376;2023-04-09T08:12:06;72.20;;;40.45;;
37983;SDS011;64625;50.882;4.376;2023-04-09T08:14:32;66.70;;;37.03;;
37983;SDS011;64625;50.882;4.376;2023-04-09T08:16:58;72.18;;;37.70;;
37983;SDS011;64625;50.882;4.376;2023-04-09T08:19:25;62.58;;;35.85;;
37983;SDS011;64625;50.882;4.376;2023-04-09T08:21:51;66.35;;;36.35;;
37983;SDS011;64625;50.882;4.376;2023-04-09T08:24:17;61.10;;;35.35;;
37983;SDS011;64625;50.882;4.376;2023-04-09T08:26:43;63.00;;;36.33;;
37983;SDS011;64625;50.882;4.376;2023-04-09T08:29:10;62.38;;;35.97;;
37983;SDS011;64625;50.882;4.376;2023-04-09T08:31:37;67.97;;;36.45;;
37983;SDS011;64625;50.882;4.376;2023-04-09T08:34:04;68.35;;;38.20;;
37983;SDS011;64625;50.882;4.376;2023-04-09T08:36:30;57.95;;;34.10;;
37983;SDS011;64625;50.882;4.376;2023-04-09T08:38:56;59.75;;;31.73;;
37983;SDS011;64625;50.882;4.376;2023-04-09T08:41:25;58.95;;;34.70;;
37983;SDS011;64625;50.882;4.376;2023-04-09T08:43:55;52.72;;;31.33;;
37983;SDS011;64625;50.882;4.376;2023-04-09T08:46:21;60.33;;;32.95;;
37983;SDS011;64625;50.882;4.376;2023-04-09T08:48:48;54.90;;;33.55;;
37983;SDS011;64625;50.882;4.376;2023-04-09T08:51:16;57.50;;;32.35;;
37983;SDS011;64625;50.882;4.376;2023-04-09T08:53:44;62.40;;;30.17;;
37983;SDS011;64625;50.882;4.376;2023-04-09T08:56:12;62.78;;;30.27;;
37983;SDS011;64625;50.882;4.376;2023-04-09T08:58:40;62.58;;;32.38;;
37983;SDS011;64625;50.882;4.376;2023-04-09T09:01:20;55.92;;;32.17;;
37983;SDS011;64625;50.882;4.376;2023-04-09T09:04:10;57.42;;;29.83;;
37983;SDS011;64625;50.882;4.376;2023-04-09T09:06:36;48.33;;;29.95;;
37983;SDS011;64625;50.882;4.376;2023-04-09T09:11:40;51.10;;;27.88;;
37983;SDS011;64625;50.882;4.376;2023-04-09T09:14:08;44.40;;;24.55;;
37983;SDS011;64625;50.882;4.376;2023-04-09T09:16:37;46.53;;;25.02;;
37983;SDS011;64625;50.882;4.376;2023-04-09T09:19:06;47.15;;;25.83;;
37983;SDS011;64625;50.882;4.376;2023-04-09T09:21:33;39.05;;;24.65;;
37983;SDS011;64625;50.882;4.376;2023-04-09T09:24:01;43.13;;;25.35;;
37983;SDS011;64625;50.882;4.376;2023-04-09T09:26:40;42.88;;;24.95;;
37983;SDS011;64625;50.882;4.376;2023-04-09T09:29:07;42.28;;;24.70;;
37983;SDS011;64625;50.882;4.376;2023-04-09T09:31:33;46.15;;;26.80;;
37983;SDS011;64625;50.882;4.376;2023-04-09T09:34:11;41.88;;;25.02;;
37983;SDS011;64625;50.882;4.376;2023-04-09T09:36:37;40.13;;;23.52;;
37983;SDS011;64625;50.882;4.376;2023-04-09T09:39:03;39.17;;;23.63;;
37983;SDS011;64625;50.882;4.376;2023-04-09T09:41:34;37.30;;;23.25;;
37983;SDS011;64625;50.882;4.376;2023-04-09T09:44:00;48.30;;;25.88;;
37983;SDS011;64625;50.882;4.376;2023-04-09T09:46:28;37.45;;;22.33;;
37983;SDS011;64625;50.882;4.376;2023-04-09T09:48:58;39.38;;;22.17;;
37983;SDS011;64625;50.882;4.376;2023-04-09T09:51:24;40.80;;;23.52;;
37983;SDS011;64625;50.882;4.376;2023-04-09T09:53:54;35.38;;;21.88;;
37983;SDS011;64625;50.882;4.376;2023-04-09T09:56:22;40.83;;;22.27;;
37983;SDS011;64625;50.882;4.376;2023-04-09T09:58:56;43.65;;;23.52;;
37983;SDS011;64625;50.882;4.376;2023-04-09T10:01:30;34.45;;;20.83;;
37983;SDS011;64625;50.882;4.376;2023-04-09T10:03:59;36.67;;;20.77;;
37983;SDS011;64625;50.882;4.376;2023-04-09T10:06:26;36.40;;;20.67;;
37983;SDS011;64625;50.882;4.376;2023-04-09T10:08:55;35.70;;;22.48;;
37983;SDS011;64625;50.882;4.376;2023-04-09T10:11:23;33.53;;;19.75;;
37983;SDS011;64625;50.882;4.376;2023-04-09T10:13:50;40.20;;;21.02;;
37983;SDS011;64625;50.882;4.376;2023-04-09T10:16:21;35.80;;;19.40;;
37983;SDS011;64625;50.882;4.376;2023-04-09T10:18:47;35.50;;;20.90;;
37983;SDS011;64625;50.882;4.376;2023-04-09T10:21:21;33.60;;;19.52;;
37983;SDS011;64625;50.882;4.376;2023-04-09T10:24:04;33.33;;;21.40;;
37983;SDS011;64625;50.882;4.376;2023-04-09T10:26:33;37.20;;;21.10;;
37983;SDS011;64625;50.882;4.376;2023-04-09T10:29:05;34.38;;;20.58;;
37983;SDS011;64625;50.882;4.376;2023-04-09T10:34:33;31.50;;;20.13;;
37983;SDS011;64625;50.882;4.376;2023-04-09T10:37:05;39.08;;;19.30;;
37983;SDS011;64625;50.882;4.376;2023-04-09T10:39:36;30.33;;;19.42;;
37983;SDS011;64625;50.882;4.376;2023-04-09T10:42:51;33.83;;;20.73;;
37983;SDS011;64625;50.882;4.376;2023-04-09T10:47:32;29.95;;;19.08;;
37983;SDS011;64625;50.882;4.376;2023-04-09T10:52:54;35.22;;;20.15;;
37983;SDS011;64625;50.882;4.376;2023-04-09T10:58:05;33.10;;;18.67;;
37983;SDS011;64625;50.882;4.376;2023-04-09T11:00:37;38.35;;;20.38;;
37983;SDS011;64625;50.882;4.376;2023-04-09T11:05:37;32.15;;;19.63;;
37983;SDS011;64625;50.882;4.376;2023-04-09T11:08:12;34.45;;;21.20;;
37983;SDS011;64625;50.882;4.376;2023-04-09T11:10:39;34.22;;;20.83;;
37983;SDS011;64625;50.882;4.376;2023-04-09T11:13:11;32.08;;;18.30;;
37983;SDS011;64625;50.882;4.376;2023-04-09T11:15:38;29.83;;;19.08;;
37983;SDS011;64625;50.882;4.376;2023-04-09T11:18:04;39.63;;;21.05;;
37983;SDS011;64625;50.882;4.376;2023-04-09T11:20:32;30.42;;;18.85;;
37983;SDS011;64625;50.882;4.376;2023-04-09T11:22:58;34.53;;;20.20;;
37983;SDS011;64625;50.882;4.376;2023-04-09T11:25:29;30.30;;;19.92;;
37983;SDS011;64625;50.882;4.376;2023-04-09T11:27:56;33.88;;;18.67;;
37983;SDS011;64625;50.882;4.376;2023-04-09T11:30:22;32.13;;;18.25;;
37983;SDS011;64625;50.882;4.376;2023-04-09T11:32:48;26.35;;;16.00;;
37983;SDS011;64625;50.882;4.376;2023-04-09T11:35:18;27.08;;;16.50;;
37983;SDS011;64625;50.882;4.376;2023-04-09T11:37:46;30.17;;;16.42;;
37983;SDS011;64625;50.882;4.376;2023-04-09T11:40:13;27.05;;;18.52;;
37983;SDS011;64625;50.882;4.376;2023-04-09T11:42:48;34.80;;;19.25;;
37983;SDS011;64625;50.882;4.376;2023-04-09T11:45:15;30.95;;;18.85;;
37983;SDS011;64625;50.882;4.376;2023-04-09T11:47:42;27.65;;;16.42;;
37983;SDS011;64625;50.882;4.376;2023-04-09T11:50:09;28.15;;;17.55;;
37983;SDS011;64625;50.882;4.376;2023-04-09T11:52:38;25.55;;;16.85;;
37983;SDS011;64625;50.882;4.376;2023-04-09T11:55:05;24.20;;;14.88;;
37983;SDS011;64625;50.882;4.376;2023-04-09T11:57:38;20.20;;;11.77;;
37983;SDS011;64625;50.882;4.376;2023-04-09T12:00:14;23.13;;;13.95;;
37983;SDS011;64625;50.882;4.376;2023-04-09T12:02:42;25.48;;;15.10;;
37983;SDS011;64625;50.882;4.376;2023-04-09T12:05:23;26.85;;;15.02;;
37983;SDS011;64625;50.882;4.376;2023-04-09T12:07:51;25.17;;;14.65;;
37983;SDS011;64625;50.882;4.376;2023-04-09T12:10:25;22.42;;;14.07;;
37983;SDS011;64625;50.882;4.376;2023-04-09T12:15:24;25.95;;;13.38;;
37983;SDS011;64625;50.882;4.376;2023-04-09T12:17:50;21.50;;;14.00;;
37983;SDS011;64625;50.882;4.376;2023-04-09T12:23:02;21.08;;;13.45;;
37983;SDS011;64625;50.882;4.376;2023-04-09T12:25:29;24.58;;;15.13;;
37983;SDS011;64625;50.882;4.376;2023-04-09T12:27:56;24.38;;;14.13;;
37983;SDS011;64625;50.882;4.376;2023-04-09T12:30:23;22.77;;;13.88;;
37983;SDS011;64625;50.882;4.376;2023-04-09T12:32:51;23.15;;;14.30;;
37983;SDS011;64625;50.882;4.376;2023-04-09T12:35:18;25.55;;;12.35;;
37983;SDS011;64625;50.882;4.376;2023-04-09T12:37:44;21.25;;;12.52;;
37983;SDS011;64625;50.882;4.376;2023-04-09T12:40:11;20.58;;;13.23;;
37983;SDS011;64625;50.882;4.376;2023-04-09T12:42:39;25.48;;;13.18;;
37983;SDS011;64625;50.882;4.376;2023-04-09T12:45:06;21.58;;;12.70;;
37983;SDS011;64625;50.882;4.376;2023-04-09T12:47:33;29.98;;;13.80;;
37983;SDS011;64625;50.882;4.376;2023-04-09T12:50:05;21.75;;;14.20;;
37983;SDS011;64625;50.882;4.376;2023-04-09T12:52:32;28.02;;;13.23;;
37983;SDS011;64625;50.882;4.376;2023-04-09T12:54:59;23.70;;;13.73;;
37983;SDS011;64625;50.882;4.376;2023-04-09T12:57:28;21.98;;;12.88;;
37983;SDS011;64625;50.882;4.376;2023-04-09T12:59:54;21.20;;;12.60;;
37983;SDS011;64625;50.882;4.376;2023-04-09T13:02:21;16.13;;;9.57;;
37983;SDS011;64625;50.882;4.376;2023-04-09T13:04:47;13.32;;;9.45;;
37983;SDS011;64625;50.882;4.376;2023-04-09T13:07:13;14.63;;;10.00;;
37983;SDS011;64625;50.882;4.376;2023-04-09T13:09:41;21.77;;;11.15;;
37983;SDS011;64625;50.882;4.376;2023-04-09T13:12:08;14.95;;;8.45;;
37983;SDS011;64625;50.882;4.376;2023-04-09T13:14:33;17.20;;;10.40;;
37983;SDS011;64625;50.882;4.376;2023-04-09T13:17:00;14.95;;;9.38;;
37983;SDS011;64625;50.882;4.376;2023-04-09T13:19:26;15.88;;;10.60;;
37983;SDS011;64625;50.882;4.376;2023-04-09T13:21:52;19.90;;;11.55;;
37983;SDS011;64625;50.882;4.376;2023-04-09T13:24:18;15.88;;;9.65;;
37983;SDS011;64625;50.882;4.376;2023-04-09T13:26:44;19.95;;;11.02;;
37983;SDS011;64625;50.882;4.376;2023-04-09T13:29:09;19.05;;;11.18;;
37983;SDS011;64625;50.882;4.376;2023-04-09T13:31:36;19.48;;;10.23;;
37983;SDS011;64625;50.882;4.376;2023-04-09T13:34:02;14.20;;;9.95;;
37983;SDS011;64625;50.882;4.376;2023-04-09T13:36:28;22.38;;;10.80;;
37983;SDS011;64625;50.882;4.376;2023-04-09T13:38:55;17.30;;;9.43;;
37983;SDS011;64625;50.882;4.376;2023-04-09T13:41:33;14.93;;;8.40;;
37983;SDS011;64625;50.882;4.376;2023-04-09T13:44:00;14.95;;;9.75;;
37983;SDS011;64625;50.882;4.376;2023-04-09T13:46:26;15.45;;;9.13;;
37983;SDS011;64625;50.882;4.376;2023-04-09T13:48:52;13.98;;;8.52;;
37983;SDS011;64625;50.882;4.376;2023-04-09T13:51:19;14.75;;;7.75;;
37983;SDS011;64625;50.882;4.376;2023-04-09T13:53:51;17.63;;;11.13;;
37983;SDS011;64625;50.882;4.376;2023-04-09T13:56:17;17.35;;;11.02;;
37983;SDS011;64625;50.882;4.376;2023-04-09T13:58:43;12.07;;;8.13;;
37983;SDS011;64625;50.882;4.376;2023-04-09T14:01:18;13.48;;;8.85;;
37983;SDS011;64625;50.882;4.376;2023-04-09T14:03:44;13.45;;;7.50;;
37983;SDS011;64625;50.882;4.376;2023-04-09T14:06:10;12.02;;;8.30;;
37983;SDS011;64625;50.882;4.376;2023-04-09T14:08:37;19.55;;;8.80;;
37983;SDS011;64625;50.882;4.376;2023-04-09T14:11:03;13.43;;;8.63;;
37983;SDS011;64625;50.882;4.376;2023-04-09T14:13:31;16.52;;;8.30;;
37983;SDS011;64625;50.882;4.376;2023-04-09T14:15:57;16.85;;;11.20;;
37983;SDS011;64625;50.882;4.376;2023-04-09T14:18:23;13.73;;;7.93;;
37983;SDS011;64625;50.882;4.376;2023-04-09T14:20:48;16.00;;;8.18;;
37983;SDS011;64625;50.882;4.376;2023-04-09T14:23:17;16.50;;;8.63;;
37983;SDS011;64625;50.882;4.376;2023-04-09T14:25:43;17.05;;;10.50;;
37983;SDS011;64625;50.882;4.376;2023-04-09T14:28:09;18.67;;;9.60;;
37983;SDS011;64625;50.882;4.376;2023-04-09T14:30:35;16.38;;;10.65;;
37983;SDS011;64625;50.882;4.376;2023-04-09T14:33:01;21.40;;;9.15;;
37983;SDS011;64625;50.882;4.376;2023-04-09T14:35:27;15.40;;;8.52;;
37983;SDS011;64625;50.882;4.376;2023-04-09T14:37:52;11.68;;;7.60;;
37983;SDS011;64625;50.882;4.376;2023-04-09T14:40:19;15.10;;;8.57;;
37983;SDS011;64625;50.882;4.376;2023-04-09T14:42:45;13.43;;;8.77;;
37983;SDS011;64625;50.882;4.376;2023-04-09T14:45:10;13.05;;;7.65;;
37983;SDS011;64625;50.882;4.376;2023-04-09T14:47:36;17.63;;;8.27;;
37983;SDS011;64625;50.882;4.376;2023-04-09T14:50:02;13.95;;;8.35;;
37983;SDS011;64625;50.882;4.376;2023-04-09T14:52:29;15.45;;;7.68;;
37983;SDS011;64625;50.882;4.376;2023-04-09T14:54:55;13.57;;;8.30;;
37983;SDS011;64625;50.882;4.376;2023-04-09T14:57:21;11.43;;;7.63;;